createdAt,value
2018-12-29T00:01:01.244Z,37.75
2018-12-29T00:03:31.168Z,36.98
2018-12-29T00:06:00.429Z,36.63
2018-12-29T00:08:29.616Z,39.33
2018-12-29T00:10:58.910Z,34.65
2018-12-29T00:13:28.162Z,37.03
2018-12-29T00:15:59.495Z,37.40
2018-12-29T00:18:32.106Z,34.53
2018-12-29T00:21:01.701Z,33.55
2018-12-29T00:23:30.982Z,35.48
2018-12-29T00:26:00.464Z,35.28
2018-12-29T00:28:29.938Z,36.05
2018-12-29T00:30:59.387Z,40.52
2018-12-29T00:33:31.612Z,39.55
2018-12-29T00:36:00.782Z,42.00
2018-12-29T00:38:29.988Z,41.15
2018-12-29T00:41:01.778Z,36.23
2018-12-29T00:43:30.976Z,33.38
2018-12-29T00:46:00.071Z,36.15
2018-12-29T00:48:29.313Z,34.95
2018-12-29T00:50:58.491Z,38.75
2018-12-29T00:53:27.674Z,36.08
2018-12-29T00:55:59.477Z,37.53
2018-12-29T00:58:28.689Z,34.18
2018-12-29T01:00:57.838Z,38.10
2018-12-29T01:03:27.047Z,38.63
2018-12-29T01:05:56.274Z,35.43
2018-12-29T01:08:25.427Z,34.27
2018-12-29T01:10:54.644Z,39.03
2018-12-29T01:13:23.790Z,39.45
2018-12-29T01:15:52.975Z,40.25
2018-12-29T01:18:22.289Z,43.20
2018-12-29T01:20:51.474Z,39.50
2018-12-29T01:23:20.764Z,38.83
2018-12-29T01:25:49.966Z,42.43
2018-12-29T01:28:20.555Z,36.83
2018-12-29T01:30:49.784Z,36.73
2018-12-29T01:33:19.807Z,36.10
2018-12-29T01:35:49.012Z,38.50
2018-12-29T01:38:18.110Z,41.65
2018-12-29T01:40:47.343Z,39.35
2018-12-29T01:43:16.470Z,38.60
2018-12-29T01:45:45.728Z,39.67
2018-12-29T01:48:14.910Z,38.17
2018-12-29T01:50:44.098Z,36.73
2018-12-29T01:53:13.338Z,37.90
2018-12-29T01:55:42.474Z,38.20
2018-12-29T01:58:11.668Z,38.30
2018-12-29T02:00:40.926Z,42.62
2018-12-29T02:03:10.170Z,41.70
2018-12-29T02:05:39.341Z,39.92
2018-12-29T02:08:13.914Z,43.17
2018-12-29T02:10:43.088Z,40.65
2018-12-29T02:13:12.450Z,44.45
2018-12-29T02:15:41.698Z,41.92
2018-12-29T02:18:10.896Z,43.20
2018-12-29T02:20:40.255Z,46.15
2018-12-29T02:23:09.430Z,41.65
2018-12-29T02:25:38.667Z,42.78
2018-12-29T02:28:07.836Z,48.50
2018-12-29T02:30:37.003Z,44.42
2018-12-29T02:33:06.367Z,40.05
2018-12-29T02:35:35.574Z,47.08
2018-12-29T02:38:04.806Z,49.50
2018-12-29T02:40:34.025Z,45.70
2018-12-29T02:43:03.171Z,46.45
2018-12-29T02:45:33.419Z,46.42
2018-12-29T02:48:02.879Z,47.93
2018-12-29T02:50:32.061Z,46.18
2018-12-29T02:53:01.373Z,48.42
2018-12-29T02:55:30.583Z,44.73
2018-12-29T02:57:59.763Z,45.60
2018-12-29T03:00:29.021Z,47.90
2018-12-29T03:02:58.171Z,48.73
2018-12-29T03:05:27.385Z,46.83
2018-12-29T03:07:56.655Z,46.98
2018-12-29T03:10:25.822Z,48.55
2018-12-29T03:12:54.971Z,46.37
2018-12-29T03:15:24.484Z,49.42
2018-12-29T03:17:53.672Z,53.05
2018-12-29T03:20:22.824Z,47.43
2018-12-29T03:22:52.034Z,50.43
2018-12-29T03:25:21.174Z,49.53
2018-12-29T03:27:50.395Z,45.48
2018-12-29T03:30:19.597Z,47.48
2018-12-29T03:32:48.891Z,48.55
2018-12-29T03:35:18.090Z,51.58
2018-12-29T03:37:47.310Z,45.95
2018-12-29T03:40:16.586Z,49.42
2018-12-29T03:42:45.767Z,52.25
2018-12-29T03:45:14.913Z,45.52
2018-12-29T03:47:44.120Z,43.95
2018-12-29T03:50:13.256Z,44.05
2018-12-29T03:52:42.432Z,52.05
2018-12-29T03:55:11.574Z,55.17
2018-12-29T03:57:40.699Z,53.78
2018-12-29T04:00:09.900Z,52.73
2018-12-29T04:02:39.059Z,55.92
2018-12-29T04:05:08.246Z,51.98
2018-12-29T04:07:37.451Z,52.17
2018-12-29T04:10:11.431Z,47.35
2018-12-29T04:12:42.457Z,47.60
2018-12-29T04:15:11.649Z,55.48
2018-12-29T04:17:40.829Z,54.05
2018-12-29T04:20:09.858Z,51.10
2018-12-29T04:22:39.069Z,57.17
2018-12-29T04:25:08.353Z,54.88
2018-12-29T04:27:37.579Z,50.15
2018-12-29T04:30:06.757Z,58.73
2018-12-29T04:32:35.899Z,52.38
2018-12-29T04:35:05.577Z,58.85
2018-12-29T04:37:34.752Z,51.40
2018-12-29T04:40:03.966Z,57.15
2018-12-29T04:42:33.089Z,54.63
2018-12-29T04:45:02.266Z,53.50
2018-12-29T04:47:31.437Z,59.15
2018-12-29T04:50:00.640Z,62.55
2018-12-29T04:52:29.766Z,64.87
2018-12-29T04:54:58.901Z,59.93
2018-12-29T04:57:28.059Z,65.85
2018-12-29T04:59:57.250Z,63.65
2018-12-29T05:02:26.453Z,62.25
2018-12-29T05:04:55.694Z,63.95
2018-12-29T05:07:24.854Z,67.90
2018-12-29T05:09:54.116Z,64.20
2018-12-29T05:12:23.334Z,71.12
2018-12-29T05:14:52.474Z,62.88
2018-12-29T05:17:21.670Z,65.97
2018-12-29T05:19:50.859Z,60.58
2018-12-29T05:22:19.950Z,66.70
2018-12-29T05:24:49.188Z,59.77
2018-12-29T05:27:18.325Z,63.08
2018-12-29T05:29:47.474Z,66.42
2018-12-29T05:32:16.614Z,65.30
2018-12-29T05:34:45.786Z,75.00
2018-12-29T05:37:14.926Z,60.05
2018-12-29T05:39:44.762Z,64.40
2018-12-29T05:42:13.920Z,71.02
2018-12-29T05:44:42.998Z,62.15
2018-12-29T05:47:12.176Z,72.12
2018-12-29T05:49:41.330Z,69.35
2018-12-29T05:52:10.475Z,61.10
2018-12-29T05:54:39.597Z,67.20
2018-12-29T05:57:08.765Z,60.95
2018-12-29T05:59:37.985Z,63.08
2018-12-29T06:02:07.189Z,61.08
2018-12-29T06:04:36.343Z,69.10
2018-12-29T06:07:05.523Z,68.65
2018-12-29T06:09:34.750Z,76.62
2018-12-29T06:12:03.914Z,64.75
2018-12-29T06:14:33.041Z,71.12
2018-12-29T06:17:02.204Z,70.67
2018-12-29T06:19:31.455Z,73.55
2018-12-29T06:22:00.690Z,73.17
2018-12-29T06:24:29.845Z,77.03
2018-12-29T06:26:58.886Z,66.60
2018-12-29T06:29:28.050Z,67.15
2018-12-29T06:31:57.178Z,67.10
2018-12-29T06:34:26.316Z,71.00
2018-12-29T06:36:55.453Z,66.65
2018-12-29T06:39:24.650Z,62.03
2018-12-29T06:41:53.848Z,66.77
2018-12-29T06:44:22.972Z,64.85
2018-12-29T06:46:52.185Z,72.00
2018-12-29T06:49:21.324Z,61.80
2018-12-29T06:51:50.539Z,69.82
2018-12-29T06:54:19.736Z,65.47
2018-12-29T06:56:48.911Z,75.65
2018-12-29T06:59:18.253Z,78.78
2018-12-29T07:01:48.541Z,70.75
2018-12-29T07:04:17.668Z,72.12
2018-12-29T07:06:46.896Z,70.08
2018-12-29T07:09:16.176Z,72.17
2018-12-29T07:11:45.404Z,71.22
2018-12-29T07:14:14.507Z,67.05
2018-12-29T07:16:43.681Z,73.07
2018-12-29T07:19:12.830Z,72.55
2018-12-29T07:21:42.094Z,74.72
2018-12-29T07:24:11.376Z,72.03
2018-12-29T07:26:40.540Z,72.65
2018-12-29T07:29:09.694Z,70.92
2018-12-29T07:31:38.836Z,78.75
2018-12-29T07:34:08.056Z,72.42
2018-12-29T07:36:37.183Z,74.92
2018-12-29T07:39:07.680Z,65.78
2018-12-29T07:41:36.809Z,66.25
2018-12-29T07:44:05.976Z,73.87
2018-12-29T07:46:35.182Z,72.53
2018-12-29T07:49:04.388Z,70.05
2018-12-29T07:51:33.616Z,72.37
2018-12-29T07:54:02.775Z,68.67
2018-12-29T07:56:32.246Z,75.72
2018-12-29T07:59:01.493Z,75.35
2018-12-29T08:01:30.656Z,69.22
2018-12-29T08:03:59.898Z,73.62
2018-12-29T08:06:30.911Z,68.80
2018-12-29T08:09:00.105Z,71.57
2018-12-29T08:11:29.217Z,69.58
2018-12-29T08:13:58.443Z,82.85
2018-12-29T08:16:27.569Z,77.37
2018-12-29T08:18:56.713Z,76.30
2018-12-29T08:21:25.861Z,75.92
2018-12-29T08:23:55.743Z,76.67
2018-12-29T08:26:24.953Z,72.65
2018-12-29T08:28:54.807Z,74.95
2018-12-29T08:31:24.091Z,80.25
2018-12-29T08:34:02.717Z,74.00
2018-12-29T08:36:34.033Z,69.60
2018-12-29T08:39:05.523Z,70.42
2018-12-29T08:41:34.893Z,70.05
2018-12-29T08:44:04.489Z,72.65
2018-12-29T08:46:33.948Z,84.65
2018-12-29T08:49:03.540Z,84.95
2018-12-29T08:51:32.758Z,82.82
2018-12-29T08:54:01.949Z,75.92
2018-12-29T08:56:31.142Z,74.95
2018-12-29T08:59:00.354Z,69.27
2018-12-29T09:01:29.492Z,71.42
2018-12-29T09:03:58.727Z,71.12
2018-12-29T09:06:30.922Z,70.62
2018-12-29T09:09:01.244Z,80.12
2018-12-29T09:11:30.818Z,72.70
2018-12-29T09:14:04.118Z,79.90
2018-12-29T09:16:33.628Z,59.63
2018-12-29T09:19:03.086Z,70.28
2018-12-29T09:21:33.548Z,69.90
2018-12-29T09:24:04.649Z,68.72
2018-12-29T09:26:38.195Z,68.85
2018-12-29T09:29:08.977Z,71.33
2018-12-29T09:31:38.392Z,71.55
2018-12-29T09:34:07.824Z,74.17
2018-12-29T09:36:37.309Z,63.55
2018-12-29T09:39:07.982Z,70.28
2018-12-29T09:41:37.394Z,70.03
2018-12-29T09:44:07.682Z,71.60
2018-12-29T09:46:39.294Z,70.25
2018-12-29T09:49:13.490Z,72.08
2018-12-29T09:51:43.367Z,71.05
2018-12-29T09:54:12.768Z,74.72
2018-12-29T09:56:45.776Z,73.78
2018-12-29T09:59:15.024Z,83.45
2018-12-29T10:01:44.379Z,70.55
2018-12-29T10:04:13.718Z,73.83
2018-12-29T10:06:43.012Z,71.22
2018-12-29T10:09:14.150Z,73.87
2018-12-29T10:11:45.911Z,61.50
2018-12-29T10:14:15.217Z,75.80
2018-12-29T10:16:44.488Z,72.67
2018-12-29T10:19:16.544Z,72.72
2018-12-29T10:21:49.745Z,75.20
2018-12-29T10:24:21.787Z,69.92
2018-12-29T10:26:51.367Z,74.65
2018-12-29T10:29:20.633Z,78.22
2018-12-29T10:31:49.908Z,70.47
2018-12-29T10:34:20.338Z,66.75
2018-12-29T10:36:50.787Z,64.25
2018-12-29T10:39:20.213Z,64.25
2018-12-29T10:41:49.433Z,60.43
2018-12-29T10:44:18.669Z,66.50
2018-12-29T10:46:47.825Z,61.73
2018-12-29T10:49:19.319Z,62.25
2018-12-29T10:51:48.612Z,58.55
2018-12-29T10:54:17.818Z,52.80
2018-12-29T10:56:48.327Z,65.32
2018-12-29T10:59:17.662Z,61.28
2018-12-29T11:01:46.892Z,55.98
2018-12-29T11:04:16.615Z,59.08
2018-12-29T11:06:45.944Z,55.60
2018-12-29T11:09:17.393Z,68.15
2018-12-29T11:11:47.080Z,68.80
2018-12-29T11:14:19.792Z,57.60
2018-12-29T11:16:49.992Z,53.33
2018-12-29T11:19:22.431Z,54.20
2018-12-29T11:21:52.414Z,47.23
2018-12-29T11:24:21.834Z,55.23
2018-12-29T11:26:51.093Z,56.85
2018-12-29T11:29:20.936Z,54.60
2018-12-29T11:31:50.927Z,60.80
2018-12-29T11:34:20.793Z,58.17
2018-12-29T11:36:50.340Z,48.98
2018-12-29T11:39:19.639Z,46.60
2018-12-29T11:41:48.982Z,44.58
2018-12-29T11:44:18.715Z,44.18
2018-12-29T11:46:48.404Z,39.10
2018-12-29T11:49:18.174Z,41.37
2018-12-29T11:51:48.470Z,48.58
2018-12-29T11:54:18.263Z,46.63
2018-12-29T11:56:48.050Z,41.10
2018-12-29T11:59:17.401Z,42.62
2018-12-29T12:01:47.748Z,48.17
2018-12-29T12:04:17.172Z,41.88
2018-12-29T12:06:46.435Z,43.20
2018-12-29T12:09:16.082Z,39.20
2018-12-29T12:11:45.715Z,41.98
2018-12-29T12:14:15.230Z,34.80
2018-12-29T12:16:44.508Z,40.88
2018-12-29T12:19:16.262Z,39.78
2018-12-29T12:21:45.906Z,39.73
2018-12-29T12:24:15.263Z,34.30
2018-12-29T12:26:44.995Z,35.33
2018-12-29T12:29:14.415Z,36.42
2018-12-29T12:31:44.316Z,36.45
2018-12-29T12:34:13.688Z,33.85
2018-12-29T12:36:43.656Z,39.03
2018-12-29T12:39:12.978Z,35.05
2018-12-29T12:41:42.349Z,38.35
2018-12-29T12:44:11.848Z,35.78
2018-12-29T12:46:41.520Z,34.15
2018-12-29T12:49:11.532Z,33.45
2018-12-29T12:51:40.978Z,37.80
2018-12-29T12:54:12.906Z,41.13
2018-12-29T12:56:42.083Z,39.83
2018-12-29T12:59:11.690Z,34.92
2018-12-29T13:01:42.541Z,35.65
2018-12-29T13:04:11.717Z,35.88
2018-12-29T13:06:40.873Z,30.30
2018-12-29T13:09:10.513Z,40.40
2018-12-29T13:11:40.090Z,31.42
2018-12-29T13:14:09.360Z,30.72
2018-12-29T13:16:38.549Z,36.95
2018-12-29T13:19:07.910Z,33.98
2018-12-29T13:21:37.303Z,34.40
2018-12-29T13:24:06.544Z,30.25
2018-12-29T13:26:35.799Z,31.73
2018-12-29T13:29:04.930Z,33.28
2018-12-29T13:31:34.234Z,35.78
2018-12-29T13:34:07.072Z,31.82
2018-12-29T13:36:37.803Z,32.28
2018-12-29T13:39:08.586Z,31.23
2018-12-29T13:41:37.868Z,29.90
2018-12-29T13:44:07.364Z,29.65
2018-12-29T13:46:40.092Z,24.60
2018-12-29T13:49:10.598Z,28.77
2018-12-29T13:51:42.552Z,25.85
2018-12-29T13:54:12.166Z,21.00
2018-12-29T13:56:44.186Z,22.45
2018-12-29T13:59:13.568Z,21.30
2018-12-29T14:01:42.919Z,21.60
2018-12-29T14:04:12.141Z,21.17
2018-12-29T14:06:41.458Z,19.77
2018-12-29T14:09:10.895Z,18.25
2018-12-29T14:11:40.434Z,21.50
2018-12-29T14:14:10.261Z,21.15
2018-12-29T14:16:40.161Z,20.27
2018-12-29T14:19:11.765Z,22.05
2018-12-29T14:21:42.528Z,21.27
2018-12-29T14:24:11.823Z,19.80
2018-12-29T14:26:41.131Z,19.23
2018-12-29T14:29:10.622Z,22.48
2018-12-29T14:31:39.901Z,21.02
2018-12-29T14:34:11.771Z,19.62
2018-12-29T14:36:42.527Z,17.00
2018-12-29T14:39:12.112Z,19.77
2018-12-29T14:41:44.087Z,18.65
2018-12-29T14:44:13.273Z,17.35
2018-12-29T14:46:42.757Z,18.50
2018-12-29T14:49:12.087Z,18.87
2018-12-29T14:51:41.245Z,17.35
2018-12-29T14:54:12.021Z,16.00
2018-12-29T14:56:41.295Z,16.90
2018-12-29T14:59:11.234Z,15.08
2018-12-29T15:01:40.809Z,17.15
2018-12-29T15:04:10.048Z,14.95
2018-12-29T15:06:39.274Z,16.82
2018-12-29T15:09:08.862Z,17.23
2018-12-29T15:11:38.082Z,17.45
2018-12-29T15:14:08.880Z,15.15
2018-12-29T15:16:38.480Z,18.92
2018-12-29T15:19:07.945Z,19.62
2018-12-29T15:21:37.525Z,16.40
2018-12-29T15:24:06.884Z,17.82
2018-12-29T15:26:36.491Z,17.55
2018-12-29T15:29:05.978Z,16.52
2018-12-29T15:31:35.252Z,15.85
2018-12-29T15:34:04.619Z,14.33
2018-12-29T15:36:34.297Z,15.13
2018-12-29T15:39:04.771Z,16.10
2018-12-29T15:41:33.971Z,14.80
2018-12-29T15:44:03.523Z,15.88
2018-12-29T15:46:32.774Z,13.62
2018-12-29T15:49:02.456Z,13.40
2018-12-29T15:51:31.620Z,14.80
2018-12-29T15:54:01.138Z,17.90
2018-12-29T15:56:30.755Z,13.85
2018-12-29T15:59:00.030Z,13.55
2018-12-29T16:01:33.105Z,12.75
2018-12-29T16:04:02.326Z,13.80
2018-12-29T16:06:31.467Z,16.73
2018-12-29T16:09:01.568Z,13.60
2018-12-29T16:11:36.266Z,15.13
2018-12-29T16:14:09.264Z,17.92
2018-12-29T16:16:38.749Z,21.30
2018-12-29T16:19:08.132Z,45.48
2018-12-29T16:21:37.451Z,44.48
2018-12-29T16:24:07.274Z,14.90
2018-12-29T16:26:36.767Z,13.18
2018-12-29T16:29:07.160Z,16.00
2018-12-29T16:31:36.648Z,15.13
2018-12-29T16:34:08.812Z,16.40
2018-12-29T16:36:38.784Z,13.83
2018-12-29T16:39:08.869Z,16.48
2018-12-29T16:41:41.784Z,18.50
2018-12-29T16:44:12.446Z,16.80
2018-12-29T16:46:41.947Z,16.93
2018-12-29T16:49:13.306Z,16.23
2018-12-29T16:51:42.914Z,20.15
2018-12-29T16:54:14.343Z,17.98
2018-12-29T16:56:43.693Z,15.72
2018-12-29T16:59:13.547Z,21.70
2018-12-29T17:01:44.526Z,18.10
2018-12-29T17:04:22.930Z,19.23
2018-12-29T17:06:52.350Z,22.02
2018-12-29T17:09:22.492Z,20.95
2018-12-29T17:11:52.510Z,25.35
2018-12-29T17:14:22.322Z,21.82
2018-12-29T17:16:51.683Z,17.90
2018-12-29T17:19:21.446Z,24.25
2018-12-29T17:21:51.031Z,17.30
2018-12-29T17:24:20.416Z,17.65
2018-12-29T17:26:52.066Z,18.55
2018-12-29T17:29:28.007Z,22.37
2018-12-29T17:31:59.690Z,24.52
2018-12-29T17:34:32.007Z,18.52
2018-12-29T17:37:01.445Z,19.95
2018-12-29T17:39:33.676Z,21.70
2018-12-29T17:42:02.988Z,16.77
2018-12-29T17:44:32.289Z,20.43
2018-12-29T17:47:01.726Z,18.77
2018-12-29T17:49:31.139Z,16.48
2018-12-29T17:52:00.819Z,14.13
2018-12-29T17:54:33.233Z,18.20
2018-12-29T17:57:02.858Z,14.58
2018-12-29T17:59:32.763Z,20.88
2018-12-29T18:02:02.709Z,13.72
2018-12-29T18:04:35.710Z,20.17
2018-12-29T18:07:06.699Z,17.65
2018-12-29T18:09:36.042Z,19.98
2018-12-29T18:12:13.891Z,15.32
2018-12-29T18:14:45.010Z,15.15
2018-12-29T18:17:14.347Z,19.50
2018-12-29T18:19:43.768Z,18.98
2018-12-29T18:22:14.670Z,16.05
2018-12-29T18:24:44.010Z,19.48
2018-12-29T18:27:13.268Z,19.55
2018-12-29T18:29:44.104Z,21.00
2018-12-29T18:32:13.709Z,17.67
2018-12-29T18:34:43.439Z,16.75
2018-12-29T18:37:12.877Z,20.68
2018-12-29T18:39:42.294Z,19.82
2018-12-29T18:42:11.733Z,17.17
2018-12-29T18:44:41.136Z,24.85
2018-12-29T18:47:10.463Z,20.20
2018-12-29T18:49:42.497Z,21.80
2018-12-29T18:52:12.056Z,23.38
2018-12-29T18:54:41.325Z,21.70
2018-12-29T18:57:10.782Z,24.43
2018-12-29T18:59:40.135Z,26.80
2018-12-29T19:02:09.413Z,32.90
2018-12-29T19:04:39.595Z,26.50
2018-12-29T19:07:08.828Z,27.87
2018-12-29T19:09:39.486Z,29.72
2018-12-29T19:12:11.372Z,28.15
2018-12-29T19:14:40.216Z,31.70
2018-12-29T19:17:13.822Z,31.82
2018-12-29T19:19:46.357Z,35.85
2018-12-29T19:22:16.385Z,35.90
2018-12-29T19:24:45.724Z,42.65
2018-12-29T19:27:17.870Z,39.13
2018-12-29T19:29:47.479Z,40.38
2018-12-29T19:32:17.348Z,40.35
2018-12-29T19:34:47.037Z,45.40
2018-12-29T19:37:17.267Z,45.33
2018-12-29T19:39:46.442Z,45.38
2018-12-29T19:42:15.845Z,49.40
2018-12-29T19:44:45.648Z,47.15
2018-12-29T19:47:16.108Z,46.77
2018-12-29T19:49:45.513Z,41.42
2018-12-29T19:52:14.947Z,45.65
2018-12-29T19:54:44.286Z,46.95
2018-12-29T19:57:14.313Z,40.95
2018-12-29T19:59:46.734Z,45.28
2018-12-29T20:02:16.100Z,46.30
2018-12-29T20:04:45.731Z,47.08
2018-12-29T20:07:16.022Z,49.42
2018-12-29T20:09:47.038Z,50.63
2018-12-29T20:12:16.346Z,51.13
2018-12-29T20:14:49.225Z,46.53
2018-12-29T20:17:18.627Z,50.60
2018-12-29T20:19:48.596Z,48.28
2018-12-29T20:22:18.199Z,46.98
2018-12-29T20:24:48.019Z,52.45
2018-12-29T20:27:17.244Z,49.42
2018-12-29T20:29:46.772Z,52.58
2018-12-29T20:32:16.586Z,58.13
2018-12-29T20:34:45.850Z,52.93
2018-12-29T20:37:15.117Z,52.90
2018-12-29T20:39:44.400Z,52.33
2018-12-29T20:42:13.646Z,56.77
2018-12-29T20:44:43.775Z,55.28
2018-12-29T20:47:15.834Z,53.68
2018-12-29T20:49:47.486Z,59.40
2018-12-29T20:52:17.268Z,57.50
2018-12-29T20:54:46.514Z,56.70
2018-12-29T20:57:29.036Z,59.85
2018-12-29T20:59:58.882Z,61.77
2018-12-29T21:02:31.310Z,55.65
2018-12-29T21:05:01.903Z,50.35
2018-12-29T21:07:31.147Z,50.65
2018-12-29T21:10:03.012Z,50.48
2018-12-29T21:12:35.649Z,54.50
2018-12-29T21:15:07.736Z,53.35
2018-12-29T21:17:56.586Z,54.90
2018-12-29T21:20:26.798Z,49.33
2018-12-29T21:22:56.134Z,46.90
2018-12-29T21:25:25.808Z,53.35
2018-12-29T21:27:57.906Z,49.03
2018-12-29T21:30:27.458Z,55.38
2018-12-29T21:32:56.986Z,59.67
2018-12-29T21:35:26.355Z,51.18
2018-12-29T21:37:55.653Z,49.83
2018-12-29T21:40:27.823Z,52.15
2018-12-29T21:42:58.350Z,49.42
2018-12-29T21:45:28.884Z,47.40
2018-12-29T21:47:59.818Z,48.75
2018-12-29T21:50:29.217Z,46.60
2018-12-29T21:53:12.237Z,47.85
2018-12-29T21:55:37.749Z,41.63
2018-12-29T21:58:07.278Z,43.90
2018-12-29T22:00:39.017Z,51.92
2018-12-29T22:03:09.231Z,45.25
2018-12-29T22:05:38.465Z,45.10
2018-12-29T22:08:14.891Z,44.73
2018-12-29T22:10:44.358Z,44.33
2018-12-29T22:13:13.725Z,43.85
2018-12-29T22:15:48.434Z,44.50
2018-12-29T22:18:21.540Z,43.02
2018-12-29T22:20:55.198Z,43.55
2018-12-29T22:23:24.647Z,34.33
2018-12-29T22:25:55.760Z,33.30
2018-12-29T22:28:25.835Z,34.00
2018-12-29T22:30:59.454Z,28.65
2018-12-29T22:33:29.314Z,30.65
2018-12-29T22:36:02.444Z,28.80
2018-12-29T22:38:32.842Z,21.00
2018-12-29T22:41:02.774Z,27.37
2018-12-29T22:43:32.645Z,28.57
2018-12-29T22:46:02.404Z,31.93
2018-12-29T22:48:32.632Z,27.62
2018-12-29T22:51:02.649Z,24.77
2018-12-29T22:53:34.413Z,33.83
2018-12-29T22:56:05.419Z,35.03
2018-12-29T22:58:34.692Z,34.35
2018-12-29T23:01:04.804Z,24.98
2018-12-29T23:03:35.012Z,28.25
2018-12-29T23:06:05.381Z,37.80
2018-12-29T23:08:35.130Z,17.30
2018-12-29T23:11:05.144Z,22.45
2018-12-29T23:13:34.466Z,41.20
2018-12-29T23:16:06.898Z,21.68
2018-12-29T23:18:36.358Z,21.37
2018-12-29T23:21:07.668Z,22.45
2018-12-29T23:23:37.110Z,17.35
2018-12-29T23:26:06.862Z,14.63
2018-12-29T23:28:36.141Z,15.10
2018-12-29T23:31:05.843Z,19.52
2018-12-29T23:33:35.335Z,19.20
2018-12-29T23:36:04.879Z,9.58
2018-12-29T23:38:34.287Z,25.72
2018-12-29T23:41:03.539Z,16.85
2018-12-29T23:43:35.827Z,18.87
2018-12-29T23:46:06.587Z,16.60
2018-12-29T23:48:35.875Z,13.58
2018-12-29T23:51:05.796Z,15.78
2018-12-29T23:53:35.525Z,17.60
2018-12-29T23:56:04.975Z,16.05
2018-12-29T23:58:34.170Z,16.87
